sensor_id;sensor_type;location;lat;lon;timestamp;P1;durP1;ratioP1;P2;durP2;ratioP2
17618;SDS011;8928;51.678;6.074;2024-01-10T00:00:36;8.53;;;3.60;;
17618;SDS011;8928;51.678;6.074;2024-01-10T00:03:23;8.63;;;3.37;;
17618;SDS011;8928;51.678;6.074;2024-01-10T00:06:12;7.97;;;3.20;;
17618;SDS011;8928;51.678;6.074;2024-01-10T00:08:59;9.47;;;3.57;;
17618;SDS011;8928;51.678;6.074;2024-01-10T00:11:46;9.63;;;3.77;;
17618;SDS011;8928;51.678;6.074;2024-01-10T00:14:33;9.07;;;3.23;;
17618;SDS011;8928;51.678;6.074;2024-01-10T00:17:20;8.50;;;3.50;;
17618;SDS011;8928;51.678;6.074;2024-01-10T00:20:07;8.47;;;3.50;;
17618;SDS011;8928;51.678;6.074;2024-01-10T00:22:56;10.60;;;3.70;;
17618;SDS011;8928;51.678;6.074;2024-01-10T00:25:43;12.70;;;3.63;;
17618;SDS011;8928;51.678;6.074;2024-01-10T00:28:30;11.87;;;4.00;;
17618;SDS011;8928;51.678;6.074;2024-01-10T00:31:18;8.43;;;3.70;;
17618;SDS011;8928;51.678;6.074;2024-01-10T00:34:05;13.23;;;3.90;;
17618;SDS011;8928;51.678;6.074;2024-01-10T00:36:52;9.17;;;3.50;;
17618;SDS011;8928;51.678;6.074;2024-01-10T00:39:40;9.53;;;3.70;;
17618;SDS011;8928;51.678;6.074;2024-01-10T00:42:27;8.77;;;3.53;;
17618;SDS011;8928;51.678;6.074;2024-01-10T00:45:15;8.70;;;3.47;;
17618;SDS011;8928;51.678;6.074;2024-01-10T00:48:03;9.37;;;3.60;;
17618;SDS011;8928;51.678;6.074;2024-01-10T00:50:50;11.70;;;3.73;;
17618;SDS011;8928;51.678;6.074;2024-01-10T00:53:37;11.53;;;3.90;;
17618;SDS011;8928;51.678;6.074;2024-01-10T00:56:26;9.67;;;3.57;;
17618;SDS011;8928;51.678;6.074;2024-01-10T00:59:13;10.37;;;3.60;;
17618;SDS011;8928;51.678;6.074;2024-01-10T01:02:00;9.77;;;3.40;;
17618;SDS011;8928;51.678;6.074;2024-01-10T01:04:47;17.57;;;4.07;;
17618;SDS011;8928;51.678;6.074;2024-01-10T01:07:34;11.13;;;3.40;;
17618;SDS011;8928;51.678;6.074;2024-01-10T01:10:21;11.37;;;3.73;;
17618;SDS011;8928;51.678;6.074;2024-01-10T01:13:09;10.93;;;3.93;;
17618;SDS011;8928;51.678;6.074;2024-01-10T01:15:56;9.50;;;4.20;;
17618;SDS011;8928;51.678;6.074;2024-01-10T01:18:43;9.40;;;3.37;;
17618;SDS011;8928;51.678;6.074;2024-01-10T01:21:30;11.07;;;3.77;;
17618;SDS011;8928;51.678;6.074;2024-01-10T01:24:17;8.77;;;3.50;;
17618;SDS011;8928;51.678;6.074;2024-01-10T01:27:04;10.60;;;3.97;;
17618;SDS011;8928;51.678;6.074;2024-01-10T01:29:53;11.13;;;4.00;;
17618;SDS011;8928;51.678;6.074;2024-01-10T01:32:40;11.17;;;4.00;;
17618;SDS011;8928;51.678;6.074;2024-01-10T01:35:27;12.33;;;4.20;;
17618;SDS011;8928;51.678;6.074;2024-01-10T01:38:14;11.10;;;3.83;;
17618;SDS011;8928;51.678;6.074;2024-01-10T01:41:01;11.03;;;3.80;;
17618;SDS011;8928;51.678;6.074;2024-01-10T01:43:48;9.90;;;3.70;;
17618;SDS011;8928;51.678;6.074;2024-01-10T01:46:37;9.17;;;3.70;;
17618;SDS011;8928;51.678;6.074;2024-01-10T01:49:25;11.53;;;3.63;;
17618;SDS011;8928;51.678;6.074;2024-01-10T01:52:12;10.50;;;3.83;;
17618;SDS011;8928;51.678;6.074;2024-01-10T01:54:59;9.27;;;3.67;;
17618;SDS011;8928;51.678;6.074;2024-01-10T01:57:47;13.17;;;4.30;;
17618;SDS011;8928;51.678;6.074;2024-01-10T02:00:34;13.73;;;4.07;;
17618;SDS011;8928;51.678;6.074;2024-01-10T02:03:23;12.33;;;4.00;;
17618;SDS011;8928;51.678;6.074;2024-01-10T02:06:10;9.93;;;3.90;;
17618;SDS011;8928;51.678;6.074;2024-01-10T02:08:58;11.80;;;4.17;;
17618;SDS011;8928;51.678;6.074;2024-01-10T02:11:46;10.57;;;3.80;;
17618;SDS011;8928;51.678;6.074;2024-01-10T02:14:33;12.30;;;3.70;;
17618;SDS011;8928;51.678;6.074;2024-01-10T02:17:20;10.47;;;3.70;;
17618;SDS011;8928;51.678;6.074;2024-01-10T02:20:09;10.93;;;3.87;;
17618;SDS011;8928;51.678;6.074;2024-01-10T02:22:56;11.60;;;3.83;;
17618;SDS011;8928;51.678;6.074;2024-01-10T02:25:45;11.10;;;4.00;;
17618;SDS011;8928;51.678;6.074;2024-01-10T02:28:32;10.00;;;3.63;;
17618;SDS011;8928;51.678;6.074;2024-01-10T02:31:19;12.30;;;3.70;;
17618;SDS011;8928;51.678;6.074;2024-01-10T02:34:06;9.10;;;3.70;;
17618;SDS011;8928;51.678;6.074;2024-01-10T02:36:53;9.90;;;4.10;;
17618;SDS011;8928;51.678;6.074;2024-01-10T02:39:40;10.53;;;3.97;;
17618;SDS011;8928;51.678;6.074;2024-01-10T02:42:28;10.43;;;3.97;;
17618;SDS011;8928;51.678;6.074;2024-01-10T02:45:16;8.50;;;3.80;;
17618;SDS011;8928;51.678;6.074;2024-01-10T02:48:03;10.33;;;3.77;;
17618;SDS011;8928;51.678;6.074;2024-01-10T02:50:50;10.80;;;4.00;;
17618;SDS011;8928;51.678;6.074;2024-01-10T02:53:39;9.93;;;3.70;;
17618;SDS011;8928;51.678;6.074;2024-01-10T02:56:26;9.73;;;4.03;;
17618;SDS011;8928;51.678;6.074;2024-01-10T02:59:15;10.83;;;3.80;;
17618;SDS011;8928;51.678;6.074;2024-01-10T03:02:02;11.77;;;4.10;;
17618;SDS011;8928;51.678;6.074;2024-01-10T03:04:49;10.03;;;3.80;;
17618;SDS011;8928;51.678;6.074;2024-01-10T03:07:37;9.00;;;4.07;;
17618;SDS011;8928;51.678;6.074;2024-01-10T03:10:24;9.93;;;3.90;;
17618;SDS011;8928;51.678;6.074;2024-01-10T03:13:11;9.17;;;3.80;;
17618;SDS011;8928;51.678;6.074;2024-01-10T03:16:00;11.27;;;3.87;;
17618;SDS011;8928;51.678;6.074;2024-01-10T03:18:47;11.13;;;4.33;;
17618;SDS011;8928;51.678;6.074;2024-01-10T03:21:34;10.70;;;4.20;;
17618;SDS011;8928;51.678;6.074;2024-01-10T03:24:21;11.73;;;4.37;;
17618;SDS011;8928;51.678;6.074;2024-01-10T03:27:09;11.73;;;4.27;;
17618;SDS011;8928;51.678;6.074;2024-01-10T03:29:56;12.17;;;4.13;;
17618;SDS011;8928;51.678;6.074;2024-01-10T03:32:45;9.80;;;3.63;;
17618;SDS011;8928;51.678;6.074;2024-01-10T03:35:32;14.57;;;4.53;;
17618;SDS011;8928;51.678;6.074;2024-01-10T03:38:19;10.87;;;3.80;;
17618;SDS011;8928;51.678;6.074;2024-01-10T03:41:06;11.80;;;3.87;;
17618;SDS011;8928;51.678;6.074;2024-01-10T03:43:53;10.63;;;3.67;;
17618;SDS011;8928;51.678;6.074;2024-01-10T03:46:40;13.27;;;4.03;;
17618;SDS011;8928;51.678;6.074;2024-01-10T03:49:29;12.97;;;3.83;;
17618;SDS011;8928;51.678;6.074;2024-01-10T03:52:16;11.23;;;3.90;;
17618;SDS011;8928;51.678;6.074;2024-01-10T03:55:04;10.30;;;3.93;;
17618;SDS011;8928;51.678;6.074;2024-01-10T03:57:51;10.33;;;4.07;;
17618;SDS011;8928;51.678;6.074;2024-01-10T04:00:38;14.57;;;4.20;;
17618;SDS011;8928;51.678;6.074;2024-01-10T04:03:25;13.70;;;4.13;;
17618;SDS011;8928;51.678;6.074;2024-01-10T04:06:14;12.40;;;3.57;;
17618;SDS011;8928;51.678;6.074;2024-01-10T04:09:01;11.63;;;4.13;;
17618;SDS011;8928;51.678;6.074;2024-01-10T04:11:48;10.23;;;4.00;;
17618;SDS011;8928;51.678;6.074;2024-01-10T04:14:36;11.03;;;3.97;;
17618;SDS011;8928;51.678;6.074;2024-01-10T04:17:23;12.23;;;4.23;;
17618;SDS011;8928;51.678;6.074;2024-01-10T04:20:10;10.03;;;3.80;;
17618;SDS011;8928;51.678;6.074;2024-01-10T04:22:58;11.17;;;4.07;;
17618;SDS011;8928;51.678;6.074;2024-01-10T04:25:45;11.33;;;4.43;;
17618;SDS011;8928;51.678;6.074;2024-01-10T04:28:32;10.73;;;3.90;;
17618;SDS011;8928;51.678;6.074;2024-01-10T04:31:19;13.20;;;4.00;;
17618;SDS011;8928;51.678;6.074;2024-01-10T04:34:06;8.97;;;3.80;;
17618;SDS011;8928;51.678;6.074;2024-01-10T04:36:53;10.43;;;3.70;;
17618;SDS011;8928;51.678;6.074;2024-01-10T04:39:42;11.73;;;4.10;;
17618;SDS011;8928;51.678;6.074;2024-01-10T04:42:29;11.43;;;4.10;;
17618;SDS011;8928;51.678;6.074;2024-01-10T04:45:17;11.47;;;4.00;;
17618;SDS011;8928;51.678;6.074;2024-01-10T04:48:04;9.47;;;3.63;;
17618;SDS011;8928;51.678;6.074;2024-01-10T04:50:51;10.90;;;3.97;;
17618;SDS011;8928;51.678;6.074;2024-01-10T04:53:39;11.87;;;4.60;;
17618;SDS011;8928;51.678;6.074;2024-01-10T04:56:27;11.60;;;4.20;;
17618;SDS011;8928;51.678;6.074;2024-01-10T04:59:14;10.90;;;4.33;;
17618;SDS011;8928;51.678;6.074;2024-01-10T05:02:01;11.07;;;4.10;;
17618;SDS011;8928;51.678;6.074;2024-01-10T05:04:48;12.67;;;4.03;;
17618;SDS011;8928;51.678;6.074;2024-01-10T05:07:35;9.80;;;4.07;;
17618;SDS011;8928;51.678;6.074;2024-01-10T05:10:22;13.43;;;4.43;;
17618;SDS011;8928;51.678;6.074;2024-01-10T05:13:11;10.57;;;3.90;;
17618;SDS011;8928;51.678;6.074;2024-01-10T05:15:59;11.00;;;4.53;;
17618;SDS011;8928;51.678;6.074;2024-01-10T05:18:46;13.57;;;4.30;;
17618;SDS011;8928;51.678;6.074;2024-01-10T05:21:33;13.50;;;4.47;;
17618;SDS011;8928;51.678;6.074;2024-01-10T05:24:20;13.67;;;4.40;;
17618;SDS011;8928;51.678;6.074;2024-01-10T05:27:07;13.50;;;4.30;;
17618;SDS011;8928;51.678;6.074;2024-01-10T05:29:55;12.43;;;4.43;;
17618;SDS011;8928;51.678;6.074;2024-01-10T05:32:43;12.90;;;4.33;;
17618;SDS011;8928;51.678;6.074;2024-01-10T05:35:30;12.63;;;4.30;;
17618;SDS011;8928;51.678;6.074;2024-01-10T05:38:17;9.67;;;3.80;;
17618;SDS011;8928;51.678;6.074;2024-01-10T05:41:04;11.17;;;4.30;;
17618;SDS011;8928;51.678;6.074;2024-01-10T05:43:51;12.53;;;4.23;;
17618;SDS011;8928;51.678;6.074;2024-01-10T05:46:40;12.33;;;4.57;;
17618;SDS011;8928;51.678;6.074;2024-01-10T05:49:27;11.53;;;4.40;;
17618;SDS011;8928;51.678;6.074;2024-01-10T05:52:14;11.47;;;4.57;;
17618;SDS011;8928;51.678;6.074;2024-01-10T05:55:01;15.07;;;4.87;;
17618;SDS011;8928;51.678;6.074;2024-01-10T05:57:49;13.27;;;4.40;;
17618;SDS011;8928;51.678;6.074;2024-01-10T06:00:36;13.03;;;4.60;;
17618;SDS011;8928;51.678;6.074;2024-01-10T06:03:24;15.90;;;5.30;;
17618;SDS011;8928;51.678;6.074;2024-01-10T06:06:11;14.70;;;4.97;;
17618;SDS011;8928;51.678;6.074;2024-01-10T06:08:58;12.67;;;4.87;;
17618;SDS011;8928;51.678;6.074;2024-01-10T06:11:45;13.83;;;4.97;;
17618;SDS011;8928;51.678;6.074;2024-01-10T06:14:32;17.73;;;5.90;;
17618;SDS011;8928;51.678;6.074;2024-01-10T06:17:19;25.23;;;7.00;;
17618;SDS011;8928;51.678;6.074;2024-01-10T06:20:08;14.67;;;5.03;;
17618;SDS011;8928;51.678;6.074;2024-01-10T06:22:56;14.37;;;4.90;;
17618;SDS011;8928;51.678;6.074;2024-01-10T06:25:43;15.33;;;4.93;;
17618;SDS011;8928;51.678;6.074;2024-01-10T06:28:30;15.30;;;4.70;;
17618;SDS011;8928;51.678;6.074;2024-01-10T06:31:18;14.43;;;5.10;;
17618;SDS011;8928;51.678;6.074;2024-01-10T06:34:05;14.83;;;4.70;;
17618;SDS011;8928;51.678;6.074;2024-01-10T06:36:53;12.77;;;5.30;;
17618;SDS011;8928;51.678;6.074;2024-01-10T06:39:41;12.23;;;4.87;;
17618;SDS011;8928;51.678;6.074;2024-01-10T06:42:29;15.93;;;5.13;;
17618;SDS011;8928;51.678;6.074;2024-01-10T06:45:16;15.87;;;4.60;;
17618;SDS011;8928;51.678;6.074;2024-01-10T06:48:05;13.17;;;4.77;;
17618;SDS011;8928;51.678;6.074;2024-01-10T06:50:53;11.73;;;4.53;;
17618;SDS011;8928;51.678;6.074;2024-01-10T06:53:42;13.97;;;4.80;;
17618;SDS011;8928;51.678;6.074;2024-01-10T06:56:29;13.70;;;4.57;;
17618;SDS011;8928;51.678;6.074;2024-01-10T06:59:16;14.00;;;5.07;;
17618;SDS011;8928;51.678;6.074;2024-01-10T07:02:03;13.00;;;5.00;;
17618;SDS011;8928;51.678;6.074;2024-01-10T07:04:50;14.37;;;4.67;;
17618;SDS011;8928;51.678;6.074;2024-01-10T07:07:37;12.20;;;4.63;;
17618;SDS011;8928;51.678;6.074;2024-01-10T07:10:26;14.80;;;4.63;;
17618;SDS011;8928;51.678;6.074;2024-01-10T07:13:13;14.20;;;5.30;;
17618;SDS011;8928;51.678;6.074;2024-01-10T07:16:00;12.87;;;4.90;;
17618;SDS011;8928;51.678;6.074;2024-01-10T07:18:47;15.20;;;5.23;;
17618;SDS011;8928;51.678;6.074;2024-01-10T07:21:36;14.30;;;5.23;;
17618;SDS011;8928;51.678;6.074;2024-01-10T07:24:23;16.17;;;5.27;;
17618;SDS011;8928;51.678;6.074;2024-01-10T07:27:12;13.23;;;5.10;;
17618;SDS011;8928;51.678;6.074;2024-01-10T07:30:00;12.57;;;4.90;;
17618;SDS011;8928;51.678;6.074;2024-01-10T07:32:47;14.17;;;4.80;;
17618;SDS011;8928;51.678;6.074;2024-01-10T07:35:34;14.77;;;4.77;;
17618;SDS011;8928;51.678;6.074;2024-01-10T07:38:21;15.83;;;5.40;;
17618;SDS011;8928;51.678;6.074;2024-01-10T07:41:08;16.87;;;5.33;;
17618;SDS011;8928;51.678;6.074;2024-01-10T07:43:58;13.27;;;4.93;;
17618;SDS011;8928;51.678;6.074;2024-01-10T07:46:45;13.70;;;4.73;;
17618;SDS011;8928;51.678;6.074;2024-01-10T07:49:32;14.33;;;5.40;;
17618;SDS011;8928;51.678;6.074;2024-01-10T07:52:20;21.20;;;5.47;;
17618;SDS011;8928;51.678;6.074;2024-01-10T07:55:08;15.73;;;5.37;;
17618;SDS011;8928;51.678;6.074;2024-01-10T07:57:55;15.20;;;5.67;;
17618;SDS011;8928;51.678;6.074;2024-01-10T08:00:44;16.60;;;5.60;;
17618;SDS011;8928;51.678;6.074;2024-01-10T08:03:31;16.23;;;6.20;;
17618;SDS011;8928;51.678;6.074;2024-01-10T08:06:19;17.87;;;5.80;;
17618;SDS011;8928;51.678;6.074;2024-01-10T08:09:06;14.40;;;5.60;;
17618;SDS011;8928;51.678;6.074;2024-01-10T08:11:53;20.73;;;6.67;;
17618;SDS011;8928;51.678;6.074;2024-01-10T08:14:41;20.33;;;6.80;;
17618;SDS011;8928;51.678;6.074;2024-01-10T08:17:32;15.17;;;5.90;;
17618;SDS011;8928;51.678;6.074;2024-01-10T08:20:19;17.83;;;5.97;;
17618;SDS011;8928;51.678;6.074;2024-01-10T08:23:07;16.83;;;6.07;;
17618;SDS011;8928;51.678;6.074;2024-01-10T08:25:54;16.27;;;5.80;;
17618;SDS011;8928;51.678;6.074;2024-01-10T08:28:42;19.17;;;6.30;;
17618;SDS011;8928;51.678;6.074;2024-01-10T08:31:29;18.20;;;6.10;;
17618;SDS011;8928;51.678;6.074;2024-01-10T08:34:18;14.47;;;5.73;;
17618;SDS011;8928;51.678;6.074;2024-01-10T08:37:05;19.40;;;6.40;;
17618;SDS011;8928;51.678;6.074;2024-01-10T08:39:53;20.87;;;6.63;;
17618;SDS011;8928;51.678;6.074;2024-01-10T08:42:40;19.10;;;6.37;;
17618;SDS011;8928;51.678;6.074;2024-01-10T08:45:27;18.17;;;6.53;;
17618;SDS011;8928;51.678;6.074;2024-01-10T08:48:14;19.53;;;6.43;;
17618;SDS011;8928;51.678;6.074;2024-01-10T08:51:03;17.97;;;6.20;;
17618;SDS011;8928;51.678;6.074;2024-01-10T08:53:50;18.67;;;6.77;;
17618;SDS011;8928;51.678;6.074;2024-01-10T08:56:38;17.73;;;6.83;;
17618;SDS011;8928;51.678;6.074;2024-01-10T08:59:25;18.47;;;6.67;;
17618;SDS011;8928;51.678;6.074;2024-01-10T09:02:13;18.40;;;6.57;;
17618;SDS011;8928;51.678;6.074;2024-01-10T09:05:00;19.30;;;7.03;;
17618;SDS011;8928;51.678;6.074;2024-01-10T09:07:50;18.97;;;7.37;;
17618;SDS011;8928;51.678;6.074;2024-01-10T09:10:39;16.90;;;6.60;;
17618;SDS011;8928;51.678;6.074;2024-01-10T09:13:26;20.47;;;7.00;;
17618;SDS011;8928;51.678;6.074;2024-01-10T09:16:13;21.43;;;6.60;;
17618;SDS011;8928;51.678;6.074;2024-01-10T09:19:00;19.93;;;6.70;;
17618;SDS011;8928;51.678;6.074;2024-01-10T09:21:47;21.80;;;7.03;;
17618;SDS011;8928;51.678;6.074;2024-01-10T09:24:36;19.00;;;7.23;;
17618;SDS011;8928;51.678;6.074;2024-01-10T09:27:23;22.33;;;7.63;;
17618;SDS011;8928;51.678;6.074;2024-01-10T09:30:11;19.87;;;7.40;;
17618;SDS011;8928;51.678;6.074;2024-01-10T09:33:01;18.67;;;7.60;;
17618;SDS011;8928;51.678;6.074;2024-01-10T09:35:49;22.43;;;7.80;;
17618;SDS011;8928;51.678;6.074;2024-01-10T09:38:36;21.80;;;7.70;;
17618;SDS011;8928;51.678;6.074;2024-01-10T09:41:25;20.30;;;6.93;;
17618;SDS011;8928;51.678;6.074;2024-01-10T09:44:14;20.13;;;7.33;;
17618;SDS011;8928;51.678;6.074;2024-01-10T09:47:03;20.40;;;7.73;;
17618;SDS011;8928;51.678;6.074;2024-01-10T09:49:50;18.57;;;7.10;;
17618;SDS011;8928;51.678;6.074;2024-01-10T09:52:39;20.20;;;7.57;;
17618;SDS011;8928;51.678;6.074;2024-01-10T09:55:30;21.13;;;7.87;;
17618;SDS011;8928;51.678;6.074;2024-01-10T09:58:22;22.40;;;7.30;;
17618;SDS011;8928;51.678;6.074;2024-01-10T10:01:10;19.80;;;7.70;;
17618;SDS011;8928;51.678;6.074;2024-01-10T10:03:57;23.67;;;7.87;;
17618;SDS011;8928;51.678;6.074;2024-01-10T10:06:44;19.40;;;7.97;;
17618;SDS011;8928;51.678;6.074;2024-01-10T10:09:32;20.87;;;7.83;;
17618;SDS011;8928;51.678;6.074;2024-01-10T10:12:19;20.93;;;7.83;;
17618;SDS011;8928;51.678;6.074;2024-01-10T10:15:10;21.03;;;8.20;;
17618;SDS011;8928;51.678;6.074;2024-01-10T10:17:58;22.07;;;8.90;;
17618;SDS011;8928;51.678;6.074;2024-01-10T10:20:45;24.90;;;9.03;;
17618;SDS011;8928;51.678;6.074;2024-01-10T10:23:32;22.23;;;8.67;;
17618;SDS011;8928;51.678;6.074;2024-01-10T10:26:19;24.10;;;8.87;;
17618;SDS011;8928;51.678;6.074;2024-01-10T10:29:06;25.37;;;9.00;;
17618;SDS011;8928;51.678;6.074;2024-01-10T10:31:56;22.23;;;8.20;;
17618;SDS011;8928;51.678;6.074;2024-01-10T10:34:43;24.07;;;8.60;;
17618;SDS011;8928;51.678;6.074;2024-01-10T10:37:30;23.67;;;8.60;;
17618;SDS011;8928;51.678;6.074;2024-01-10T10:40:17;26.17;;;8.60;;
17618;SDS011;8928;51.678;6.074;2024-01-10T10:43:04;22.10;;;8.40;;
17618;SDS011;8928;51.678;6.074;2024-01-10T10:45:52;23.43;;;8.33;;
17618;SDS011;8928;51.678;6.074;2024-01-10T10:48:43;22.30;;;8.77;;
17618;SDS011;8928;51.678;6.074;2024-01-10T10:51:32;25.53;;;8.70;;
17618;SDS011;8928;51.678;6.074;2024-01-10T10:54:20;25.47;;;9.03;;
17618;SDS011;8928;51.678;6.074;2024-01-10T10:57:08;22.27;;;8.30;;
17618;SDS011;8928;51.678;6.074;2024-01-10T10:59:56;22.83;;;9.07;;
17618;SDS011;8928;51.678;6.074;2024-01-10T11:02:44;20.20;;;8.60;;
17618;SDS011;8928;51.678;6.074;2024-01-10T11:05:33;24.13;;;8.60;;
17618;SDS011;8928;51.678;6.074;2024-01-10T11:08:22;24.37;;;8.97;;
17618;SDS011;8928;51.678;6.074;2024-01-10T11:11:13;25.17;;;9.10;;
17618;SDS011;8928;51.678;6.074;2024-01-10T11:14:14;21.10;;;8.63;;
17618;SDS011;8928;51.678;6.074;2024-01-10T11:17:17;24.33;;;9.27;;
17618;SDS011;8928;51.678;6.074;2024-01-10T11:20:21;23.37;;;9.10;;
17618;SDS011;8928;51.678;6.074;2024-01-10T11:23:32;25.20;;;9.10;;
17618;SDS011;8928;51.678;6.074;2024-01-10T11:26:27;27.10;;;10.20;;
17618;SDS011;8928;51.678;6.074;2024-01-10T11:29:14;27.10;;;9.17;;
17618;SDS011;8928;51.678;6.074;2024-01-10T11:32:04;23.23;;;9.60;;
17618;SDS011;8928;51.678;6.074;2024-01-10T11:34:54;25.83;;;9.50;;
17618;SDS011;8928;51.678;6.074;2024-01-10T11:37:43;26.87;;;9.73;;
17618;SDS011;8928;51.678;6.074;2024-01-10T11:40:46;27.33;;;9.50;;
17618;SDS011;8928;51.678;6.074;2024-01-10T11:43:34;25.23;;;9.47;;
17618;SDS011;8928;51.678;6.074;2024-01-10T11:46:21;23.10;;;9.03;;
17618;SDS011;8928;51.678;6.074;2024-01-10T11:49:09;21.77;;;8.83;;
17618;SDS011;8928;51.678;6.074;2024-01-10T11:51:57;23.07;;;9.10;;
17618;SDS011;8928;51.678;6.074;2024-01-10T11:54:46;23.57;;;8.80;;
17618;SDS011;8928;51.678;6.074;2024-01-10T11:57:34;25.53;;;9.00;;
17618;SDS011;8928;51.678;6.074;2024-01-10T12:00:22;22.07;;;8.90;;
17618;SDS011;8928;51.678;6.074;2024-01-10T12:03:12;25.47;;;9.20;;
17618;SDS011;8928;51.678;6.074;2024-01-10T12:06:00;26.33;;;10.17;;
17618;SDS011;8928;51.678;6.074;2024-01-10T12:08:48;25.80;;;9.43;;
17618;SDS011;8928;51.678;6.074;2024-01-10T12:11:35;23.07;;;9.50;;
17618;SDS011;8928;51.678;6.074;2024-01-10T12:14:25;31.33;;;10.33;;
17618;SDS011;8928;51.678;6.074;2024-01-10T12:17:14;24.40;;;9.40;;
17618;SDS011;8928;51.678;6.074;2024-01-10T12:20:01;22.60;;;8.87;;
17618;SDS011;8928;51.678;6.074;2024-01-10T12:22:49;25.90;;;10.23;;
17618;SDS011;8928;51.678;6.074;2024-01-10T12:25:36;28.33;;;10.47;;
17618;SDS011;8928;51.678;6.074;2024-01-10T12:28:23;26.13;;;9.93;;
17618;SDS011;8928;51.678;6.074;2024-01-10T12:31:12;24.53;;;9.50;;
17618;SDS011;8928;51.678;6.074;2024-01-10T12:33:59;22.37;;;8.90;;
17618;SDS011;8928;51.678;6.074;2024-01-10T12:36:46;26.33;;;9.47;;
17618;SDS011;8928;51.678;6.074;2024-01-10T12:39:33;21.73;;;8.83;;
17618;SDS011;8928;51.678;6.074;2024-01-10T12:42:20;21.93;;;8.50;;
17618;SDS011;8928;51.678;6.074;2024-01-10T12:45:20;23.43;;;8.43;;
17618;SDS011;8928;51.678;6.074;2024-01-10T12:48:08;24.83;;;9.20;;
17618;SDS011;8928;51.678;6.074;2024-01-10T12:50:59;23.47;;;8.83;;
17618;SDS011;8928;51.678;6.074;2024-01-10T12:53:49;22.77;;;9.40;;
17618;SDS011;8928;51.678;6.074;2024-01-10T12:56:36;20.27;;;8.03;;
17618;SDS011;8928;51.678;6.074;2024-01-10T12:59:23;23.07;;;8.80;;
17618;SDS011;8928;51.678;6.074;2024-01-10T13:02:10;23.17;;;8.83;;
17618;SDS011;8928;51.678;6.074;2024-01-10T13:04:59;25.23;;;8.80;;
17618;SDS011;8928;51.678;6.074;2024-01-10T13:07:46;26.23;;;8.93;;
17618;SDS011;8928;51.678;6.074;2024-01-10T13:10:33;21.40;;;8.33;;
17618;SDS011;8928;51.678;6.074;2024-01-10T13:13:20;22.00;;;8.90;;
17618;SDS011;8928;51.678;6.074;2024-01-10T13:16:07;23.97;;;8.60;;
17618;SDS011;8928;51.678;6.074;2024-01-10T13:18:55;20.87;;;8.43;;
17618;SDS011;8928;51.678;6.074;2024-01-10T13:21:46;25.80;;;10.07;;
17618;SDS011;8928;51.678;6.074;2024-01-10T13:24:33;24.93;;;9.20;;
17618;SDS011;8928;51.678;6.074;2024-01-10T13:27:20;27.07;;;9.57;;
17618;SDS011;8928;51.678;6.074;2024-01-10T13:30:07;32.83;;;11.00;;
17618;SDS011;8928;51.678;6.074;2024-01-10T13:32:57;29.47;;;9.83;;
17618;SDS011;8928;51.678;6.074;2024-01-10T13:35:44;25.00;;;9.40;;
17618;SDS011;8928;51.678;6.074;2024-01-10T13:38:32;22.33;;;8.63;;
17618;SDS011;8928;51.678;6.074;2024-01-10T13:41:20;26.93;;;9.57;;
17618;SDS011;8928;51.678;6.074;2024-01-10T13:44:07;27.23;;;8.93;;
17618;SDS011;8928;51.678;6.074;2024-01-10T13:46:55;22.90;;;8.93;;
17618;SDS011;8928;51.678;6.074;2024-01-10T13:49:42;22.87;;;8.47;;
17618;SDS011;8928;51.678;6.074;2024-01-10T13:52:29;21.23;;;8.77;;
17618;SDS011;8928;51.678;6.074;2024-01-10T13:55:17;23.43;;;9.10;;
17618;SDS011;8928;51.678;6.074;2024-01-10T13:58:04;22.10;;;8.63;;
17618;SDS011;8928;51.678;6.074;2024-01-10T14:00:53;21.87;;;9.10;;
17618;SDS011;8928;51.678;6.074;2024-01-10T14:03:40;24.50;;;9.37;;
17618;SDS011;8928;51.678;6.074;2024-01-10T14:06:27;23.50;;;9.43;;
17618;SDS011;8928;51.678;6.074;2024-01-10T14:09:14;21.97;;;9.20;;
17618;SDS011;8928;51.678;6.074;2024-01-10T14:12:04;22.83;;;8.63;;
17618;SDS011;8928;51.678;6.074;2024-01-10T14:14:52;22.57;;;9.07;;
17618;SDS011;8928;51.678;6.074;2024-01-10T14:17:39;23.40;;;9.33;;
17618;SDS011;8928;51.678;6.074;2024-01-10T14:20:27;22.50;;;9.17;;
17618;SDS011;8928;51.678;6.074;2024-01-10T14:23:14;23.70;;;9.03;;
17618;SDS011;8928;51.678;6.074;2024-01-10T14:26:03;20.77;;;8.70;;
17618;SDS011;8928;51.678;6.074;2024-01-10T14:28:52;28.47;;;9.70;;
17618;SDS011;8928;51.678;6.074;2024-01-10T14:31:40;26.27;;;10.00;;
17618;SDS011;8928;51.678;6.074;2024-01-10T14:34:28;24.53;;;9.53;;
17618;SDS011;8928;51.678;6.074;2024-01-10T14:37:15;23.20;;;9.00;;
17618;SDS011;8928;51.678;6.074;2024-01-10T14:40:02;25.97;;;9.10;;
17618;SDS011;8928;51.678;6.074;2024-01-10T14:42:51;27.17;;;9.70;;
17618;SDS011;8928;51.678;6.074;2024-01-10T14:45:40;25.97;;;9.03;;
17618;SDS011;8928;51.678;6.074;2024-01-10T14:48:27;24.07;;;9.97;;
17618;SDS011;8928;51.678;6.074;2024-01-10T14:51:14;27.50;;;8.57;;
17618;SDS011;8928;51.678;6.074;2024-01-10T14:54:01;25.77;;;8.87;;
17618;SDS011;8928;51.678;6.074;2024-01-10T14:56:50;25.30;;;9.10;;
17618;SDS011;8928;51.678;6.074;2024-01-10T14:59:39;26.27;;;9.73;;
17618;SDS011;8928;51.678;6.074;2024-01-10T15:02:28;27.97;;;10.07;;
17618;SDS011;8928;51.678;6.074;2024-01-10T15:05:15;24.90;;;8.97;;
17618;SDS011;8928;51.678;6.074;2024-01-10T15:08:03;27.00;;;9.70;;
17618;SDS011;8928;51.678;6.074;2024-01-10T15:10:52;23.67;;;8.93;;
17618;SDS011;8928;51.678;6.074;2024-01-10T15:13:39;22.53;;;9.43;;
17618;SDS011;8928;51.678;6.074;2024-01-10T15:16:28;23.50;;;9.07;;
17618;SDS011;8928;51.678;6.074;2024-01-10T15:19:16;28.10;;;9.33;;
17618;SDS011;8928;51.678;6.074;2024-01-10T15:22:04;24.00;;;9.73;;
17618;SDS011;8928;51.678;6.074;2024-01-10T15:24:51;25.53;;;9.53;;
17618;SDS011;8928;51.678;6.074;2024-01-10T15:27:38;24.50;;;8.83;;
17618;SDS011;8928;51.678;6.074;2024-01-10T15:30:25;25.83;;;9.10;;
17618;SDS011;8928;51.678;6.074;2024-01-10T15:33:12;27.70;;;9.87;;
17618;SDS011;8928;51.678;6.074;2024-01-10T15:36:01;27.30;;;10.00;;
17618;SDS011;8928;51.678;6.074;2024-01-10T15:38:48;31.53;;;10.03;;
17618;SDS011;8928;51.678;6.074;2024-01-10T15:41:35;30.70;;;9.93;;
17618;SDS011;8928;51.678;6.074;2024-01-10T15:44:22;28.90;;;10.00;;
17618;SDS011;8928;51.678;6.074;2024-01-10T15:47:09;28.47;;;11.00;;
17618;SDS011;8928;51.678;6.074;2024-01-10T15:49:56;32.70;;;11.53;;
17618;SDS011;8928;51.678;6.074;2024-01-10T15:52:45;26.70;;;11.43;;
17618;SDS011;8928;51.678;6.074;2024-01-10T15:55:34;30.93;;;11.30;;
17618;SDS011;8928;51.678;6.074;2024-01-10T15:58:22;33.47;;;10.83;;
17618;SDS011;8928;51.678;6.074;2024-01-10T16:01:09;35.97;;;13.33;;
17618;SDS011;8928;51.678;6.074;2024-01-10T16:03:56;41.97;;;16.20;;
17618;SDS011;8928;51.678;6.074;2024-01-10T16:06:43;42.93;;;17.17;;
17618;SDS011;8928;51.678;6.074;2024-01-10T16:09:31;37.67;;;14.37;;
17618;SDS011;8928;51.678;6.074;2024-01-10T16:12:19;36.27;;;13.93;;
17618;SDS011;8928;51.678;6.074;2024-01-10T16:15:08;49.07;;;17.43;;
17618;SDS011;8928;51.678;6.074;2024-01-10T16:17:56;47.23;;;17.73;;
17618;SDS011;8928;51.678;6.074;2024-01-10T16:20:43;40.27;;;14.60;;
17618;SDS011;8928;51.678;6.074;2024-01-10T16:23:30;38.33;;;13.27;;
17618;SDS011;8928;51.678;6.074;2024-01-10T16:26:19;34.23;;;12.70;;
17618;SDS011;8928;51.678;6.074;2024-01-10T16:29:06;35.00;;;12.57;;
17618;SDS011;8928;51.678;6.074;2024-01-10T16:31:53;30.93;;;12.00;;
17618;SDS011;8928;51.678;6.074;2024-01-10T16:34:40;29.63;;;10.60;;
17618;SDS011;8928;51.678;6.074;2024-01-10T16:37:27;29.37;;;10.93;;
17618;SDS011;8928;51.678;6.074;2024-01-10T16:40:15;28.80;;;10.30;;
17618;SDS011;8928;51.678;6.074;2024-01-10T16:43:04;33.93;;;10.93;;
17618;SDS011;8928;51.678;6.074;2024-01-10T16:45:51;33.33;;;11.43;;
17618;SDS011;8928;51.678;6.074;2024-01-10T16:48:38;34.57;;;11.37;;
17618;SDS011;8928;51.678;6.074;2024-01-10T16:51:25;28.07;;;10.97;;